sensor_id;sensor_type;location;lat;lon;timestamp;P1;durP1;ratioP1;P2;durP2;ratioP2
69985;SDS011;57328;52.054;5.294;2023-04-25T00:00:18;11.20;;;2.75;;
69985;SDS011;57328;52.054;5.294;2023-04-25T00:02:46;18.90;;;3.30;;
69985;SDS011;57328;52.054;5.294;2023-04-25T00:05:13;11.95;;;2.60;;
69985;SDS011;57328;52.054;5.294;2023-04-25T00:07:42;19.73;;;2.65;;
69985;SDS011;57328;52.054;5.294;2023-04-25T00:10:10;10.57;;;2.60;;
69985;SDS011;57328;52.054;5.294;2023-04-25T00:12:38;15.18;;;2.65;;
69985;SDS011;57328;52.054;5.294;2023-04-25T00:15:05;15.35;;;3.20;;
69985;SDS011;57328;52.054;5.294;2023-04-25T00:17:33;12.95;;;2.45;;
69985;SDS011;57328;52.054;5.294;2023-04-25T00:20:01;20.85;;;3.10;;
69985;SDS011;57328;52.054;5.294;2023-04-25T00:22:31;11.55;;;2.92;;
69985;SDS011;57328;52.054;5.294;2023-04-25T00:24:59;9.68;;;2.40;;
69985;SDS011;57328;52.054;5.294;2023-04-25T00:27:27;15.00;;;2.47;;
69985;SDS011;57328;52.054;5.294;2023-04-25T00:29:54;8.13;;;2.28;;
69985;SDS011;57328;52.054;5.294;2023-04-25T00:32:21;15.15;;;2.53;;
69985;SDS011;57328;52.054;5.294;2023-04-25T00:34:48;16.80;;;2.45;;
69985;SDS011;57328;52.054;5.294;2023-04-25T00:37:15;13.85;;;3.40;;
69985;SDS011;57328;52.054;5.294;2023-04-25T00:39:44;11.45;;;2.60;;
69985;SDS011;57328;52.054;5.294;2023-04-25T00:42:11;9.45;;;2.13;;
69985;SDS011;57328;52.054;5.294;2023-04-25T00:44:39;12.68;;;2.28;;
69985;SDS011;57328;52.054;5.294;2023-04-25T00:47:06;9.82;;;3.15;;
69985;SDS011;57328;52.054;5.294;2023-04-25T00:49:33;13.52;;;3.05;;
69985;SDS011;57328;52.054;5.294;2023-04-25T00:52:01;16.65;;;2.65;;
69985;SDS011;57328;52.054;5.294;2023-04-25T00:54:28;14.48;;;2.85;;
69985;SDS011;57328;52.054;5.294;2023-04-25T00:56:56;11.75;;;2.78;;
69985;SDS011;57328;52.054;5.294;2023-04-25T00:59:24;15.18;;;2.72;;
69985;SDS011;57328;52.054;5.294;2023-04-25T01:01:53;14.60;;;2.50;;
69985;SDS011;57328;52.054;5.294;2023-04-25T01:04:21;16.33;;;3.13;;
69985;SDS011;57328;52.054;5.294;2023-04-25T01:06:48;11.75;;;2.70;;
69985;SDS011;57328;52.054;5.294;2023-04-25T01:09:16;11.68;;;2.40;;
69985;SDS011;57328;52.054;5.294;2023-04-25T01:11:43;14.38;;;2.65;;
69985;SDS011;57328;52.054;5.294;2023-04-25T01:14:11;14.10;;;2.40;;
69985;SDS011;57328;52.054;5.294;2023-04-25T01:16:38;14.55;;;2.63;;
69985;SDS011;57328;52.054;5.294;2023-04-25T01:19:08;11.95;;;2.80;;
69985;SDS011;57328;52.054;5.294;2023-04-25T01:21:39;15.15;;;2.95;;
69985;SDS011;57328;52.054;5.294;2023-04-25T01:24:06;15.45;;;2.90;;
69985;SDS011;57328;52.054;5.294;2023-04-25T01:26:34;17.08;;;2.97;;
69985;SDS011;57328;52.054;5.294;2023-04-25T01:29:03;18.67;;;3.28;;
69985;SDS011;57328;52.054;5.294;2023-04-25T01:31:31;12.60;;;2.47;;
69985;SDS011;57328;52.054;5.294;2023-04-25T01:33:59;16.60;;;2.70;;
69985;SDS011;57328;52.054;5.294;2023-04-25T01:36:26;13.45;;;2.80;;
69985;SDS011;57328;52.054;5.294;2023-04-25T01:38:53;13.30;;;2.75;;
69985;SDS011;57328;52.054;5.294;2023-04-25T01:41:21;11.32;;;2.80;;
69985;SDS011;57328;52.054;5.294;2023-04-25T01:43:49;15.73;;;3.38;;
69985;SDS011;57328;52.054;5.294;2023-04-25T01:46:17;17.10;;;3.33;;
69985;SDS011;57328;52.054;5.294;2023-04-25T01:48:44;14.43;;;2.60;;
69985;SDS011;57328;52.054;5.294;2023-04-25T01:51:12;9.38;;;2.65;;
69985;SDS011;57328;52.054;5.294;2023-04-25T01:53:39;11.88;;;2.78;;
69985;SDS011;57328;52.054;5.294;2023-04-25T01:56:06;10.57;;;3.22;;
69985;SDS011;57328;52.054;5.294;2023-04-25T01:58:34;14.23;;;2.58;;
69985;SDS011;57328;52.054;5.294;2023-04-25T02:01:01;12.80;;;2.67;;
69985;SDS011;57328;52.054;5.294;2023-04-25T02:03:30;14.52;;;3.92;;
69985;SDS011;57328;52.054;5.294;2023-04-25T02:05:58;11.50;;;3.22;;
69985;SDS011;57328;52.054;5.294;2023-04-25T02:08:25;15.85;;;2.80;;
69985;SDS011;57328;52.054;5.294;2023-04-25T02:10:53;13.15;;;3.05;;
69985;SDS011;57328;52.054;5.294;2023-04-25T02:13:20;13.98;;;2.90;;
69985;SDS011;57328;52.054;5.294;2023-04-25T02:15:47;10.98;;;2.47;;
69985;SDS011;57328;52.054;5.294;2023-04-25T02:18:14;16.75;;;3.17;;
69985;SDS011;57328;52.054;5.294;2023-04-25T02:20:45;12.95;;;2.85;;
69985;SDS011;57328;52.054;5.294;2023-04-25T02:23:12;14.82;;;3.13;;
69985;SDS011;57328;52.054;5.294;2023-04-25T02:25:41;14.15;;;3.15;;
69985;SDS011;57328;52.054;5.294;2023-04-25T02:28:09;15.82;;;3.55;;
69985;SDS011;57328;52.054;5.294;2023-04-25T02:30:36;12.82;;;2.65;;
69985;SDS011;57328;52.054;5.294;2023-04-25T02:33:03;14.77;;;3.08;;
69985;SDS011;57328;52.054;5.294;2023-04-25T02:35:31;12.05;;;2.92;;
69985;SDS011;57328;52.054;5.294;2023-04-25T02:37:58;13.38;;;2.53;;
69985;SDS011;57328;52.054;5.294;2023-04-25T02:40:25;13.90;;;3.15;;
69985;SDS011;57328;52.054;5.294;2023-04-25T02:42:52;15.00;;;3.05;;
69985;SDS011;57328;52.054;5.294;2023-04-25T02:45:21;13.20;;;3.25;;
69985;SDS011;57328;52.054;5.294;2023-04-25T02:47:48;14.40;;;2.83;;
69985;SDS011;57328;52.054;5.294;2023-04-25T02:50:15;9.48;;;3.08;;
69985;SDS011;57328;52.054;5.294;2023-04-25T02:52:44;14.82;;;2.80;;
69985;SDS011;57328;52.054;5.294;2023-04-25T02:55:12;11.90;;;3.40;;
69985;SDS011;57328;52.054;5.294;2023-04-25T02:57:40;12.18;;;3.05;;
69985;SDS011;57328;52.054;5.294;2023-04-25T03:00:07;13.70;;;2.78;;
69985;SDS011;57328;52.054;5.294;2023-04-25T03:02:34;12.60;;;2.92;;
69985;SDS011;57328;52.054;5.294;2023-04-25T03:05:02;12.48;;;2.78;;
69985;SDS011;57328;52.054;5.294;2023-04-25T03:07:29;10.45;;;3.00;;
69985;SDS011;57328;52.054;5.294;2023-04-25T03:09:56;12.27;;;2.55;;
69985;SDS011;57328;52.054;5.294;2023-04-25T03:12:23;12.95;;;2.90;;
69985;SDS011;57328;52.054;5.294;2023-04-25T03:14:51;12.55;;;2.42;;
69985;SDS011;57328;52.054;5.294;2023-04-25T03:17:18;13.80;;;3.13;;
69985;SDS011;57328;52.054;5.294;2023-04-25T03:19:46;14.32;;;3.65;;
69985;SDS011;57328;52.054;5.294;2023-04-25T03:22:13;12.55;;;2.83;;
69985;SDS011;57328;52.054;5.294;2023-04-25T03:24:40;11.43;;;3.33;;
69985;SDS011;57328;52.054;5.294;2023-04-25T03:27:07;17.63;;;3.58;;
69985;SDS011;57328;52.054;5.294;2023-04-25T03:29:35;13.25;;;2.95;;
69985;SDS011;57328;52.054;5.294;2023-04-25T03:32:02;12.77;;;3.85;;
69985;SDS011;57328;52.054;5.294;2023-04-25T03:34:29;17.48;;;3.90;;
69985;SDS011;57328;52.054;5.294;2023-04-25T03:36:56;16.70;;;3.60;;
69985;SDS011;57328;52.054;5.294;2023-04-25T03:39:24;13.23;;;3.50;;
69985;SDS011;57328;52.054;5.294;2023-04-25T03:41:51;17.58;;;4.03;;
69985;SDS011;57328;52.054;5.294;2023-04-25T03:44:18;9.07;;;2.47;;
69985;SDS011;57328;52.054;5.294;2023-04-25T03:46:45;6.72;;;2.65;;
69985;SDS011;57328;52.054;5.294;2023-04-25T03:49:13;14.48;;;2.20;;
69985;SDS011;57328;52.054;5.294;2023-04-25T03:51:43;7.65;;;1.63;;
69985;SDS011;57328;52.054;5.294;2023-04-25T03:54:10;7.43;;;1.50;;
69985;SDS011;57328;52.054;5.294;2023-04-25T03:56:38;8.00;;;1.52;;
69985;SDS011;57328;52.054;5.294;2023-04-25T03:59:05;6.43;;;1.67;;
69985;SDS011;57328;52.054;5.294;2023-04-25T04:01:34;7.15;;;1.88;;
69985;SDS011;57328;52.054;5.294;2023-04-25T04:04:01;9.75;;;1.85;;
69985;SDS011;57328;52.054;5.294;2023-04-25T04:06:29;9.60;;;1.50;;
69985;SDS011;57328;52.054;5.294;2023-04-25T04:08:56;10.02;;;1.80;;
69985;SDS011;57328;52.054;5.294;2023-04-25T04:11:24;8.38;;;1.90;;
69985;SDS011;57328;52.054;5.294;2023-04-25T04:13:51;6.95;;;1.67;;
69985;SDS011;57328;52.054;5.294;2023-04-25T04:16:18;9.07;;;2.08;;
69985;SDS011;57328;52.054;5.294;2023-04-25T04:18:46;5.47;;;1.70;;
69985;SDS011;57328;52.054;5.294;2023-04-25T04:21:13;6.13;;;1.70;;
69985;SDS011;57328;52.054;5.294;2023-04-25T04:23:41;9.70;;;2.42;;
69985;SDS011;57328;52.054;5.294;2023-04-25T04:26:08;12.00;;;1.90;;
69985;SDS011;57328;52.054;5.294;2023-04-25T04:28:36;6.78;;;1.15;;
69985;SDS011;57328;52.054;5.294;2023-04-25T04:31:03;6.97;;;1.48;;
69985;SDS011;57328;52.054;5.294;2023-04-25T04:33:31;6.00;;;1.35;;
69985;SDS011;57328;52.054;5.294;2023-04-25T04:35:58;9.77;;;1.73;;
69985;SDS011;57328;52.054;5.294;2023-04-25T04:38:25;8.73;;;1.70;;
69985;SDS011;57328;52.054;5.294;2023-04-25T04:40:52;4.97;;;1.73;;
69985;SDS011;57328;52.054;5.294;2023-04-25T04:43:19;11.30;;;1.88;;
69985;SDS011;57328;52.054;5.294;2023-04-25T04:45:48;8.15;;;1.58;;
69985;SDS011;57328;52.054;5.294;2023-04-25T04:48:22;11.68;;;2.13;;
69985;SDS011;57328;52.054;5.294;2023-04-25T04:50:49;10.93;;;1.70;;
69985;SDS011;57328;52.054;5.294;2023-04-25T04:53:16;8.82;;;1.63;;
69985;SDS011;57328;52.054;5.294;2023-04-25T04:55:43;6.50;;;1.40;;
69985;SDS011;57328;52.054;5.294;2023-04-25T04:58:12;8.65;;;2.00;;
69985;SDS011;57328;52.054;5.294;2023-04-25T05:00:39;8.35;;;2.00;;
69985;SDS011;57328;52.054;5.294;2023-04-25T05:03:06;9.90;;;1.80;;
69985;SDS011;57328;52.054;5.294;2023-04-25T05:05:34;8.25;;;1.63;;
69985;SDS011;57328;52.054;5.294;2023-04-25T05:08:01;7.32;;;1.60;;
69985;SDS011;57328;52.054;5.294;2023-04-25T05:10:28;7.50;;;1.70;;
69985;SDS011;57328;52.054;5.294;2023-04-25T05:12:56;12.57;;;2.03;;
69985;SDS011;57328;52.054;5.294;2023-04-25T05:15:23;9.07;;;1.63;;
69985;SDS011;57328;52.054;5.294;2023-04-25T05:17:50;5.22;;;1.42;;
69985;SDS011;57328;52.054;5.294;2023-04-25T05:20:17;5.00;;;1.20;;
69985;SDS011;57328;52.054;5.294;2023-04-25T05:22:45;6.95;;;1.80;;
69985;SDS011;57328;52.054;5.294;2023-04-25T05:25:12;4.63;;;1.20;;
69985;SDS011;57328;52.054;5.294;2023-04-25T05:27:39;10.35;;;1.83;;
69985;SDS011;57328;52.054;5.294;2023-04-25T05:30:06;5.78;;;1.40;;
69985;SDS011;57328;52.054;5.294;2023-04-25T05:32:35;7.85;;;1.40;;
69985;SDS011;57328;52.054;5.294;2023-04-25T05:35:02;6.03;;;1.70;;
69985;SDS011;57328;52.054;5.294;2023-04-25T05:37:30;6.80;;;1.35;;
69985;SDS011;57328;52.054;5.294;2023-04-25T05:39:59;8.77;;;1.65;;
69985;SDS011;57328;52.054;5.294;2023-04-25T05:42:26;5.68;;;1.25;;
69985;SDS011;57328;52.054;5.294;2023-04-25T05:44:53;7.00;;;1.35;;
69985;SDS011;57328;52.054;5.294;2023-04-25T05:47:20;7.30;;;1.48;;
69985;SDS011;57328;52.054;5.294;2023-04-25T05:49:48;4.70;;;1.35;;
69985;SDS011;57328;52.054;5.294;2023-04-25T05:52:15;10.15;;;1.60;;
69985;SDS011;57328;52.054;5.294;2023-04-25T05:54:42;5.50;;;1.10;;
69985;SDS011;57328;52.054;5.294;2023-04-25T05:57:17;11.75;;;1.60;;
69985;SDS011;57328;52.054;5.294;2023-04-25T05:59:45;9.70;;;1.30;;
69985;SDS011;57328;52.054;5.294;2023-04-25T06:02:12;9.13;;;1.60;;
69985;SDS011;57328;52.054;5.294;2023-04-25T06:04:40;8.30;;;1.50;;
69985;SDS011;57328;52.054;5.294;2023-04-25T06:07:07;8.32;;;1.38;;
69985;SDS011;57328;52.054;5.294;2023-04-25T06:09:34;5.82;;;1.20;;
69985;SDS011;57328;52.054;5.294;2023-04-25T06:12:02;5.50;;;1.20;;
69985;SDS011;57328;52.054;5.294;2023-04-25T06:14:30;6.60;;;1.02;;
69985;SDS011;57328;52.054;5.294;2023-04-25T06:16:57;8.25;;;1.40;;
69985;SDS011;57328;52.054;5.294;2023-04-25T06:19:24;2.50;;;0.80;;
69985;SDS011;57328;52.054;5.294;2023-04-25T06:21:52;11.75;;;1.52;;
69985;SDS011;57328;52.054;5.294;2023-04-25T06:24:19;7.05;;;1.60;;
69985;SDS011;57328;52.054;5.294;2023-04-25T06:26:46;4.70;;;1.10;;
69985;SDS011;57328;52.054;5.294;2023-04-25T06:29:13;7.72;;;1.00;;
69985;SDS011;57328;52.054;5.294;2023-04-25T06:31:40;8.77;;;1.42;;
69985;SDS011;57328;52.054;5.294;2023-04-25T06:34:08;6.78;;;1.20;;
69985;SDS011;57328;52.054;5.294;2023-04-25T06:36:35;6.53;;;1.00;;
69985;SDS011;57328;52.054;5.294;2023-04-25T06:39:02;6.97;;;1.35;;
69985;SDS011;57328;52.054;5.294;2023-04-25T06:41:29;5.85;;;1.08;;
69985;SDS011;57328;52.054;5.294;2023-04-25T06:43:56;7.40;;;1.27;;
69985;SDS011;57328;52.054;5.294;2023-04-25T06:46:24;4.72;;;1.00;;
69985;SDS011;57328;52.054;5.294;2023-04-25T06:48:51;6.80;;;1.33;;
69985;SDS011;57328;52.054;5.294;2023-04-25T06:51:18;6.70;;;1.25;;
69985;SDS011;57328;52.054;5.294;2023-04-25T06:53:49;8.88;;;1.20;;
69985;SDS011;57328;52.054;5.294;2023-04-25T06:56:16;9.45;;;1.00;;
69985;SDS011;57328;52.054;5.294;2023-04-25T06:58:43;8.60;;;1.23;;
69985;SDS011;57328;52.054;5.294;2023-04-25T07:01:10;7.30;;;1.05;;
69985;SDS011;57328;52.054;5.294;2023-04-25T07:03:38;7.25;;;1.30;;
69985;SDS011;57328;52.054;5.294;2023-04-25T07:06:06;8.25;;;1.63;;
69985;SDS011;57328;52.054;5.294;2023-04-25T07:08:33;9.50;;;1.08;;
69985;SDS011;57328;52.054;5.294;2023-04-25T07:11:00;12.45;;;1.85;;
69985;SDS011;57328;52.054;5.294;2023-04-25T07:13:27;9.10;;;1.42;;
69985;SDS011;57328;52.054;5.294;2023-04-25T07:15:54;11.23;;;1.10;;
69985;SDS011;57328;52.054;5.294;2023-04-25T07:18:23;7.80;;;1.25;;
69985;SDS011;57328;52.054;5.294;2023-04-25T07:20:50;5.25;;;0.90;;
69985;SDS011;57328;52.054;5.294;2023-04-25T07:23:17;8.60;;;1.33;;
69985;SDS011;57328;52.054;5.294;2023-04-25T07:25:44;5.45;;;1.10;;
69985;SDS011;57328;52.054;5.294;2023-04-25T07:28:11;5.65;;;1.10;;
69985;SDS011;57328;52.054;5.294;2023-04-25T07:30:39;11.90;;;1.50;;
69985;SDS011;57328;52.054;5.294;2023-04-25T07:33:06;6.30;;;1.10;;
69985;SDS011;57328;52.054;5.294;2023-04-25T07:35:33;6.43;;;1.50;;
69985;SDS011;57328;52.054;5.294;2023-04-25T07:38:01;6.10;;;1.00;;
69985;SDS011;57328;52.054;5.294;2023-04-25T07:40:29;6.32;;;1.00;;
69985;SDS011;57328;52.054;5.294;2023-04-25T07:42:56;6.50;;;0.90;;
69985;SDS011;57328;52.054;5.294;2023-04-25T07:45:23;6.35;;;1.00;;
69985;SDS011;57328;52.054;5.294;2023-04-25T07:47:51;4.10;;;0.80;;
69985;SDS011;57328;52.054;5.294;2023-04-25T07:50:18;5.57;;;1.10;;
69985;SDS011;57328;52.054;5.294;2023-04-25T07:52:46;4.63;;;0.90;;
69985;SDS011;57328;52.054;5.294;2023-04-25T07:55:13;7.43;;;1.00;;
69985;SDS011;57328;52.054;5.294;2023-04-25T07:57:40;4.50;;;0.73;;
69985;SDS011;57328;52.054;5.294;2023-04-25T08:00:07;6.05;;;1.00;;
69985;SDS011;57328;52.054;5.294;2023-04-25T08:02:35;5.97;;;1.40;;
69985;SDS011;57328;52.054;5.294;2023-04-25T08:05:03;10.85;;;1.25;;
69985;SDS011;57328;52.054;5.294;2023-04-25T08:07:30;5.35;;;1.23;;
69985;SDS011;57328;52.054;5.294;2023-04-25T08:09:58;6.93;;;1.00;;
69985;SDS011;57328;52.054;5.294;2023-04-25T08:12:25;9.00;;;1.45;;
69985;SDS011;57328;52.054;5.294;2023-04-25T08:14:52;5.97;;;1.23;;
69985;SDS011;57328;52.054;5.294;2023-04-25T08:17:19;8.13;;;1.00;;
69985;SDS011;57328;52.054;5.294;2023-04-25T08:19:47;8.07;;;1.02;;
69985;SDS011;57328;52.054;5.294;2023-04-25T08:22:14;9.32;;;1.20;;
69985;SDS011;57328;52.054;5.294;2023-04-25T08:24:41;3.13;;;0.68;;
69985;SDS011;57328;52.054;5.294;2023-04-25T08:27:09;7.32;;;1.38;;
69985;SDS011;57328;52.054;5.294;2023-04-25T08:29:37;4.57;;;1.13;;
69985;SDS011;57328;52.054;5.294;2023-04-25T08:32:04;3.03;;;0.80;;
69985;SDS011;57328;52.054;5.294;2023-04-25T08:34:31;4.72;;;1.02;;
69985;SDS011;57328;52.054;5.294;2023-04-25T08:36:58;4.28;;;0.70;;
69985;SDS011;57328;52.054;5.294;2023-04-25T08:39:26;4.78;;;1.15;;
69985;SDS011;57328;52.054;5.294;2023-04-25T08:41:53;3.65;;;0.68;;
69985;SDS011;57328;52.054;5.294;2023-04-25T08:44:20;2.33;;;0.63;;
69985;SDS011;57328;52.054;5.294;2023-04-25T08:46:50;5.78;;;0.80;;
69985;SDS011;57328;52.054;5.294;2023-04-25T08:49:20;6.18;;;1.05;;
69985;SDS011;57328;52.054;5.294;2023-04-25T08:51:47;3.88;;;0.80;;
69985;SDS011;57328;52.054;5.294;2023-04-25T08:54:17;3.20;;;0.70;;
69985;SDS011;57328;52.054;5.294;2023-04-25T08:57:01;3.42;;;0.88;;
69985;SDS011;57328;52.054;5.294;2023-04-25T08:59:31;5.15;;;0.60;;
69985;SDS011;57328;52.054;5.294;2023-04-25T09:01:59;6.78;;;0.80;;
69985;SDS011;57328;52.054;5.294;2023-04-25T09:04:31;6.05;;;0.82;;
69985;SDS011;57328;52.054;5.294;2023-04-25T09:06:59;6.10;;;0.90;;
69985;SDS011;57328;52.054;5.294;2023-04-25T09:09:26;6.22;;;1.17;;
69985;SDS011;57328;52.054;5.294;2023-04-25T09:11:54;7.82;;;0.90;;
69985;SDS011;57328;52.054;5.294;2023-04-25T09:14:22;2.58;;;0.35;;
69985;SDS011;57328;52.054;5.294;2023-04-25T09:16:59;2.45;;;0.55;;
69985;SDS011;57328;52.054;5.294;2023-04-25T09:22:05;2.78;;;0.63;;
69985;SDS011;57328;52.054;5.294;2023-04-25T09:24:39;8.75;;;2.22;;
69985;SDS011;57328;52.054;5.294;2023-04-25T09:27:13;3.95;;;0.60;;
69985;SDS011;57328;52.054;5.294;2023-04-25T09:29:44;4.15;;;0.60;;
69985;SDS011;57328;52.054;5.294;2023-04-25T09:32:20;3.33;;;0.60;;
69985;SDS011;57328;52.054;5.294;2023-04-25T09:34:57;1.80;;;0.47;;
69985;SDS011;57328;52.054;5.294;2023-04-25T09:37:30;2.42;;;0.35;;
69985;SDS011;57328;52.054;5.294;2023-04-25T09:39:58;5.13;;;1.02;;
69985;SDS011;57328;52.054;5.294;2023-04-25T09:42:28;2.50;;;0.40;;
69985;SDS011;57328;52.054;5.294;2023-04-25T09:44:58;7.03;;;0.88;;
69985;SDS011;57328;52.054;5.294;2023-04-25T09:47:28;3.92;;;0.80;;
69985;SDS011;57328;52.054;5.294;2023-04-25T09:49:55;3.35;;;0.60;;
69985;SDS011;57328;52.054;5.294;2023-04-25T09:52:23;2.83;;;0.57;;
69985;SDS011;57328;52.054;5.294;2023-04-25T09:54:51;5.90;;;0.60;;
69985;SDS011;57328;52.054;5.294;2023-04-25T09:57:19;4.40;;;0.60;;
69985;SDS011;57328;52.054;5.294;2023-04-25T09:59:47;5.53;;;0.90;;
69985;SDS011;57328;52.054;5.294;2023-04-25T10:02:16;2.55;;;0.70;;
69985;SDS011;57328;52.054;5.294;2023-04-25T10:04:49;4.90;;;0.70;;
69985;SDS011;57328;52.054;5.294;2023-04-25T10:07:19;4.63;;;1.20;;
69985;SDS011;57328;52.054;5.294;2023-04-25T10:09:48;5.70;;;0.75;;
69985;SDS011;57328;52.054;5.294;2023-04-25T10:12:18;2.53;;;0.47;;
69985;SDS011;57328;52.054;5.294;2023-04-25T10:14:46;5.53;;;0.80;;
69985;SDS011;57328;52.054;5.294;2023-04-25T10:17:13;2.42;;;0.57;;
69985;SDS011;57328;52.054;5.294;2023-04-25T10:19:41;2.53;;;0.65;;
69985;SDS011;57328;52.054;5.294;2023-04-25T10:22:16;1.55;;;0.50;;
69985;SDS011;57328;52.054;5.294;2023-04-25T10:24:44;5.22;;;0.63;;
69985;SDS011;57328;52.054;5.294;2023-04-25T10:27:12;5.82;;;0.80;;
69985;SDS011;57328;52.054;5.294;2023-04-25T10:29:40;3.03;;;0.50;;
69985;SDS011;57328;52.054;5.294;2023-04-25T10:32:11;4.50;;;0.80;;
69985;SDS011;57328;52.054;5.294;2023-04-25T10:34:42;5.50;;;1.42;;
69985;SDS011;57328;52.054;5.294;2023-04-25T10:37:12;4.65;;;0.60;;
69985;SDS011;57328;52.054;5.294;2023-04-25T10:39:40;5.40;;;0.90;;
69985;SDS011;57328;52.054;5.294;2023-04-25T10:42:07;2.70;;;0.60;;
69985;SDS011;57328;52.054;5.294;2023-04-25T10:44:36;7.05;;;1.02;;
69985;SDS011;57328;52.054;5.294;2023-04-25T10:47:05;6.95;;;0.90;;
69985;SDS011;57328;52.054;5.294;2023-04-25T10:49:36;3.83;;;1.00;;
69985;SDS011;57328;52.054;5.294;2023-04-25T10:54:54;8.00;;;0.93;;
69985;SDS011;57328;52.054;5.294;2023-04-25T10:57:28;5.80;;;0.80;;
69985;SDS011;57328;52.054;5.294;2023-04-25T10:59:59;3.70;;;0.70;;
69985;SDS011;57328;52.054;5.294;2023-04-25T11:02:27;4.60;;;1.25;;
69985;SDS011;57328;52.054;5.294;2023-04-25T11:04:55;4.15;;;1.10;;
69985;SDS011;57328;52.054;5.294;2023-04-25T11:10:13;3.78;;;0.40;;
69985;SDS011;57328;52.054;5.294;2023-04-25T11:12:40;3.30;;;0.75;;
69985;SDS011;57328;52.054;5.294;2023-04-25T11:15:08;2.42;;;0.80;;
69985;SDS011;57328;52.054;5.294;2023-04-25T11:17:35;3.83;;;0.90;;
69985;SDS011;57328;52.054;5.294;2023-04-25T11:20:04;3.47;;;1.00;;
69985;SDS011;57328;52.054;5.294;2023-04-25T11:22:34;2.65;;;0.60;;
69985;SDS011;57328;52.054;5.294;2023-04-25T11:25:05;2.92;;;0.68;;
69985;SDS011;57328;52.054;5.294;2023-04-25T11:27:33;3.28;;;0.80;;
69985;SDS011;57328;52.054;5.294;2023-04-25T11:30:13;1.95;;;0.60;;
69985;SDS011;57328;52.054;5.294;2023-04-25T11:35:09;2.47;;;0.50;;
69985;SDS011;57328;52.054;5.294;2023-04-25T11:37:40;4.97;;;0.75;;
69985;SDS011;57328;52.054;5.294;2023-04-25T11:40:08;3.08;;;0.50;;
69985;SDS011;57328;52.054;5.294;2023-04-25T11:42:39;5.10;;;0.70;;
69985;SDS011;57328;52.054;5.294;2023-04-25T11:45:06;4.30;;;1.40;;
69985;SDS011;57328;52.054;5.294;2023-04-25T11:47:34;3.03;;;0.65;;
69985;SDS011;57328;52.054;5.294;2023-04-25T11:50:02;3.22;;;0.70;;
69985;SDS011;57328;52.054;5.294;2023-04-25T11:55:04;4.43;;;0.75;;
69985;SDS011;57328;52.054;5.294;2023-04-25T11:57:33;5.82;;;1.00;;
69985;SDS011;57328;52.054;5.294;2023-04-25T12:02:36;4.53;;;1.45;;
69985;SDS011;57328;52.054;5.294;2023-04-25T12:05:07;5.32;;;1.05;;
69985;SDS011;57328;52.054;5.294;2023-04-25T12:07:54;4.75;;;0.70;;
69985;SDS011;57328;52.054;5.294;2023-04-25T12:10:22;4.85;;;0.90;;
69985;SDS011;57328;52.054;5.294;2023-04-25T12:12:51;4.65;;;0.80;;
69985;SDS011;57328;52.054;5.294;2023-04-25T12:17:48;4.45;;;0.75;;
69985;SDS011;57328;52.054;5.294;2023-04-25T12:20:16;6.45;;;1.42;;
69985;SDS011;57328;52.054;5.294;2023-04-25T12:22:44;1.75;;;0.60;;
69985;SDS011;57328;52.054;5.294;2023-04-25T12:25:34;3.25;;;1.17;;
69985;SDS011;57328;52.054;5.294;2023-04-25T12:33:24;3.13;;;0.45;;
69985;SDS011;57328;52.054;5.294;2023-04-25T12:35:55;1.90;;;0.70;;
69985;SDS011;57328;52.054;5.294;2023-04-25T12:38:26;1.10;;;0.43;;
69985;SDS011;57328;52.054;5.294;2023-04-25T12:40:57;3.75;;;0.70;;
69985;SDS011;57328;52.054;5.294;2023-04-25T12:43:24;1.55;;;0.40;;
69985;SDS011;57328;52.054;5.294;2023-04-25T12:45:52;5.70;;;0.82;;
69985;SDS011;57328;52.054;5.294;2023-04-25T12:48:19;5.10;;;0.60;;
69985;SDS011;57328;52.054;5.294;2023-04-25T12:50:47;4.35;;;0.77;;
69985;SDS011;57328;52.054;5.294;2023-04-25T12:53:15;1.95;;;0.65;;
69985;SDS011;57328;52.054;5.294;2023-04-25T12:55:43;1.65;;;0.63;;
69985;SDS011;57328;52.054;5.294;2023-04-25T12:58:15;2.97;;;0.80;;
69985;SDS011;57328;52.054;5.294;2023-04-25T13:00:44;2.65;;;0.50;;
69985;SDS011;57328;52.054;5.294;2023-04-25T13:03:11;3.08;;;0.60;;
69985;SDS011;57328;52.054;5.294;2023-04-25T13:05:39;2.55;;;0.32;;
69985;SDS011;57328;52.054;5.294;2023-04-25T13:08:07;2.67;;;0.40;;
69985;SDS011;57328;52.054;5.294;2023-04-25T13:10:34;3.38;;;1.02;;
69985;SDS011;57328;52.054;5.294;2023-04-25T13:13:02;4.65;;;1.00;;
69985;SDS011;57328;52.054;5.294;2023-04-25T13:15:29;6.60;;;1.05;;
69985;SDS011;57328;52.054;5.294;2023-04-25T13:17:56;3.63;;;0.73;;
69985;SDS011;57328;52.054;5.294;2023-04-25T13:20:24;2.95;;;0.60;;
69985;SDS011;57328;52.054;5.294;2023-04-25T13:22:51;3.92;;;0.88;;
69985;SDS011;57328;52.054;5.294;2023-04-25T13:25:18;3.42;;;0.75;;
69985;SDS011;57328;52.054;5.294;2023-04-25T13:27:45;0.93;;;0.55;;
69985;SDS011;57328;52.054;5.294;2023-04-25T13:30:13;3.03;;;0.85;;
69985;SDS011;57328;52.054;5.294;2023-04-25T13:32:40;5.22;;;0.80;;
69985;SDS011;57328;52.054;5.294;2023-04-25T13:35:08;1.15;;;0.52;;
69985;SDS011;57328;52.054;5.294;2023-04-25T13:43:47;0.98;;;0.40;;
69985;SDS011;57328;52.054;5.294;2023-04-25T13:46:15;1.85;;;0.45;;
69985;SDS011;57328;52.054;5.294;2023-04-25T13:48:45;4.13;;;0.60;;
69985;SDS011;57328;52.054;5.294;2023-04-25T13:51:15;2.15;;;0.60;;
69985;SDS011;57328;52.054;5.294;2023-04-25T13:53:43;4.07;;;0.80;;
69985;SDS011;57328;52.054;5.294;2023-04-25T13:56:11;4.40;;;0.77;;
69985;SDS011;57328;52.054;5.294;2023-04-25T13:58:41;4.60;;;0.90;;
69985;SDS011;57328;52.054;5.294;2023-04-25T14:01:09;4.97;;;0.80;;
69985;SDS011;57328;52.054;5.294;2023-04-25T14:03:36;4.50;;;1.65;;
69985;SDS011;57328;52.054;5.294;2023-04-25T14:06:03;4.05;;;0.98;;
69985;SDS011;57328;52.054;5.294;2023-04-25T14:08:31;3.78;;;0.95;;
69985;SDS011;57328;52.054;5.294;2023-04-25T14:10:58;2.00;;;0.80;;
69985;SDS011;57328;52.054;5.294;2023-04-25T14:13:25;6.07;;;0.93;;
69985;SDS011;57328;52.054;5.294;2023-04-25T14:15:52;5.90;;;1.05;;
69985;SDS011;57328;52.054;5.294;2023-04-25T14:18:20;3.67;;;0.52;;
69985;SDS011;57328;52.054;5.294;2023-04-25T14:20:47;6.38;;;1.00;;
69985;SDS011;57328;52.054;5.294;2023-04-25T14:23:14;6.80;;;0.95;;
69985;SDS011;57328;52.054;5.294;2023-04-25T14:25:43;5.93;;;0.77;;
69985;SDS011;57328;52.054;5.294;2023-04-25T14:28:11;6.63;;;0.90;;
69985;SDS011;57328;52.054;5.294;2023-04-25T14:30:38;2.42;;;0.60;;
69985;SDS011;57328;52.054;5.294;2023-04-25T14:33:05;2.97;;;0.88;;
69985;SDS011;57328;52.054;5.294;2023-04-25T14:35:32;3.75;;;0.80;;
69985;SDS011;57328;52.054;5.294;2023-04-25T14:38:00;6.35;;;0.70;;
69985;SDS011;57328;52.054;5.294;2023-04-25T14:40:27;2.92;;;0.93;;
69985;SDS011;57328;52.054;5.294;2023-04-25T14:42:54;5.32;;;0.98;;
69985;SDS011;57328;52.054;5.294;2023-04-25T14:45:21;5.03;;;0.80;;
69985;SDS011;57328;52.054;5.294;2023-04-25T14:47:48;3.60;;;0.88;;
69985;SDS011;57328;52.054;5.294;2023-04-25T14:50:16;5.07;;;0.93;;
69985;SDS011;57328;52.054;5.294;2023-04-25T14:52:43;3.35;;;1.33;;
69985;SDS011;57328;52.054;5.294;2023-04-25T14:55:11;3.25;;;1.02;;
69985;SDS011;57328;52.054;5.294;2023-04-25T14:57:39;3.63;;;0.82;;
69985;SDS011;57328;52.054;5.294;2023-04-25T15:00:06;5.00;;;1.00;;
69985;SDS011;57328;52.054;5.294;2023-04-25T15:02:36;4.15;;;0.80;;
69985;SDS011;57328;52.054;5.294;2023-04-25T15:05:04;5.15;;;1.33;;
69985;SDS011;57328;52.054;5.294;2023-04-25T15:07:31;2.05;;;0.52;;
69985;SDS011;57328;52.054;5.294;2023-04-25T15:10:00;4.53;;;1.10;;
69985;SDS011;57328;52.054;5.294;2023-04-25T15:12:27;4.95;;;0.95;;
69985;SDS011;57328;52.054;5.294;2023-04-25T15:14:54;2.40;;;0.90;;
69985;SDS011;57328;52.054;5.294;2023-04-25T15:17:22;2.88;;;0.70;;